createdAt,value
2023-02-14T00:00:49.732Z,16.20
2023-02-14T00:03:16.692Z,15.50
2023-02-14T00:05:43.359Z,15.97
2023-02-14T00:08:10.078Z,15.23
2023-02-14T00:10:37.134Z,16.13
2023-02-14T00:13:04.479Z,14.80
2023-02-14T00:15:31.132Z,15.60
2023-02-14T00:18:00.859Z,19.07
2023-02-14T00:20:28.336Z,13.87
2023-02-14T00:22:55.096Z,13.30
2023-02-14T00:25:22.186Z,15.60
2023-02-14T00:27:48.831Z,13.70
2023-02-14T00:30:15.748Z,16.27
2023-02-14T00:32:43.219Z,11.57
2023-02-14T00:35:10.853Z,16.63
2023-02-14T00:37:38.016Z,13.00
2023-02-14T00:40:07.450Z,13.93
2023-02-14T00:42:34.508Z,11.80
2023-02-14T00:45:01.519Z,13.97
2023-02-14T00:47:28.289Z,13.37
2023-02-14T00:49:54.975Z,11.60
2023-02-14T00:52:21.963Z,16.60
2023-02-14T00:54:48.862Z,16.30
2023-02-14T00:57:15.527Z,14.37
2023-02-14T00:59:42.412Z,14.07
2023-02-14T01:02:09.098Z,16.60
2023-02-14T01:04:36.036Z,18.13
2023-02-14T01:07:02.743Z,14.73
2023-02-14T01:09:29.351Z,16.47
2023-02-14T01:11:56.356Z,17.70
2023-02-14T01:14:22.993Z,12.93
2023-02-14T01:16:49.770Z,13.77
2023-02-14T01:19:16.512Z,12.23
2023-02-14T01:21:43.218Z,16.03
2023-02-14T01:24:11.493Z,14.57
2023-02-14T01:26:38.184Z,12.70
2023-02-14T01:29:05.982Z,11.83
2023-02-14T01:31:35.159Z,12.90
2023-02-14T01:34:02.634Z,13.90
2023-02-14T01:36:33.226Z,14.10
2023-02-14T01:39:04.600Z,18.53
2023-02-14T01:41:34.633Z,16.93
2023-02-14T01:44:17.114Z,17.33
2023-02-14T01:46:47.191Z,15.00
2023-02-14T01:49:26.070Z,18.30
2023-02-14T01:52:10.652Z,21.20
2023-02-14T01:54:44.363Z,21.07
2023-02-14T01:57:16.186Z,17.20
2023-02-14T01:59:51.006Z,18.40
2023-02-14T02:02:23.905Z,20.80
2023-02-14T02:04:55.812Z,21.50
2023-02-14T02:07:27.033Z,15.97
2023-02-14T02:09:58.498Z,16.07
2023-02-14T02:12:25.196Z,11.67
2023-02-14T02:14:54.653Z,13.37
2023-02-14T02:17:39.589Z,14.13
2023-02-14T02:20:30.847Z,14.90
2023-02-14T02:23:17.402Z,16.17
2023-02-14T02:26:19.159Z,15.97
2023-02-14T02:28:58.576Z,18.77
2023-02-14T02:31:54.587Z,15.63
2023-02-14T02:34:58.995Z,14.53
2023-02-14T02:37:40.760Z,19.90
2023-02-14T02:40:44.241Z,21.00
2023-02-14T02:43:30.761Z,16.00
2023-02-14T02:46:48.410Z,17.63
2023-02-14T02:50:12.878Z,15.67
2023-02-14T02:53:01.576Z,15.33
2023-02-14T02:56:09.606Z,16.63
2023-02-14T02:58:45.634Z,13.70
2023-02-14T03:01:17.458Z,13.77
2023-02-14T03:04:07.205Z,13.10
2023-02-14T03:06:34.337Z,22.77
2023-02-14T03:09:30.590Z,17.07
2023-02-14T03:12:31.595Z,14.47
2023-02-14T03:15:01.500Z,17.37
2023-02-14T03:17:55.301Z,12.83
2023-02-14T03:20:36.461Z,14.90
2023-02-14T03:23:25.506Z,17.03
2023-02-14T03:26:13.835Z,17.83
2023-02-14T03:28:51.360Z,17.13
2023-02-14T03:31:27.140Z,20.73
2023-02-14T03:34:02.808Z,16.20
2023-02-14T03:36:38.318Z,18.80
2023-02-14T03:39:07.997Z,18.13
2023-02-14T03:41:40.851Z,15.20
2023-02-14T03:44:11.521Z,17.07
2023-02-14T03:46:50.332Z,16.03
2023-02-14T03:49:22.047Z,18.83
2023-02-14T03:51:52.716Z,18.50
2023-02-14T03:54:20.993Z,19.27
2023-02-14T03:56:52.844Z,17.20
2023-02-14T03:59:26.165Z,15.40
2023-02-14T04:02:06.137Z,19.50
2023-02-14T04:04:39.023Z,18.47
2023-02-14T04:07:14.704Z,20.30
2023-02-14T04:09:41.648Z,16.80
2023-02-14T04:12:08.582Z,18.57
2023-02-14T04:14:35.474Z,23.20
2023-02-14T04:17:21.349Z,30.03
2023-02-14T04:19:47.982Z,26.60
2023-02-14T04:22:14.866Z,20.83
2023-02-14T04:24:41.857Z,36.30
2023-02-14T04:27:11.433Z,43.77
2023-02-14T04:29:44.066Z,26.07
2023-02-14T04:32:14.250Z,31.53
2023-02-14T04:34:41.511Z,31.40
2023-02-14T04:37:08.713Z,26.37
2023-02-14T04:39:36.173Z,9.67
2023-02-14T04:42:04.524Z,11.27
2023-02-14T04:44:31.384Z,13.50
2023-02-14T04:46:58.245Z,9.40
2023-02-14T04:49:24.881Z,9.33
2023-02-14T04:51:51.500Z,18.77
2023-02-14T04:54:18.345Z,28.13
2023-02-14T04:56:44.969Z,7.03
2023-02-14T04:59:11.842Z,15.37
2023-02-14T05:01:38.480Z,11.50
2023-02-14T05:04:05.275Z,10.73
2023-02-14T05:06:33.143Z,9.63
2023-02-14T05:09:00.768Z,11.97
2023-02-14T05:11:28.610Z,8.33
2023-02-14T05:13:55.530Z,8.43
2023-02-14T05:16:22.695Z,10.17
2023-02-14T05:18:49.501Z,8.73
2023-02-14T05:21:33.334Z,11.60
2023-02-14T05:24:00.903Z,8.53
2023-02-14T05:26:28.355Z,10.63
2023-02-14T05:28:54.988Z,9.90
2023-02-14T05:31:22.119Z,7.27
2023-02-14T05:33:48.838Z,10.20
2023-02-14T05:36:15.469Z,8.50
2023-02-14T05:38:42.432Z,10.23
2023-02-14T05:41:09.086Z,9.17
2023-02-14T05:43:35.753Z,13.53
2023-02-14T05:46:02.701Z,8.80
2023-02-14T05:48:29.361Z,14.77
2023-02-14T05:50:56.010Z,7.27
2023-02-14T05:53:22.932Z,12.73
2023-02-14T05:55:49.801Z,12.73
2023-02-14T05:58:16.445Z,8.97
2023-02-14T06:00:43.060Z,9.03
2023-02-14T06:03:10.161Z,8.33
2023-02-14T06:05:36.809Z,10.73
2023-02-14T06:08:03.619Z,12.50
2023-02-14T06:10:30.385Z,9.83
2023-02-14T06:12:57.610Z,11.30
2023-02-14T06:15:24.282Z,8.73
2023-02-14T06:17:55.369Z,9.63
2023-02-14T06:20:24.203Z,12.27
2023-02-14T06:22:51.669Z,9.10
2023-02-14T06:25:18.423Z,10.67
2023-02-14T06:27:45.948Z,15.83
2023-02-14T06:30:14.253Z,12.77
2023-02-14T06:32:41.134Z,8.77
2023-02-14T06:35:08.393Z,13.10
2023-02-14T06:37:35.116Z,9.57
2023-02-14T06:40:02.109Z,11.60
2023-02-14T06:42:28.773Z,9.53
2023-02-14T06:44:55.437Z,8.60
2023-02-14T06:47:22.347Z,9.93
2023-02-14T06:49:48.946Z,9.70
2023-02-14T06:52:15.670Z,11.60
2023-02-14T06:54:42.624Z,10.53
2023-02-14T06:57:09.251Z,7.50
2023-02-14T06:59:36.106Z,9.60
2023-02-14T07:02:03.733Z,9.63
2023-02-14T07:04:30.705Z,8.70
2023-02-14T07:06:58.381Z,8.87
2023-02-14T07:09:25.033Z,8.67
2023-02-14T07:11:51.652Z,9.63
2023-02-14T07:14:18.501Z,9.40
2023-02-14T07:16:45.159Z,8.63
2023-02-14T07:19:12.262Z,9.83
2023-02-14T07:21:39.097Z,12.43
2023-02-14T07:24:05.980Z,10.77
2023-02-14T07:26:32.849Z,11.00
2023-02-14T07:28:59.548Z,9.30
2023-02-14T07:31:26.548Z,11.33
2023-02-14T07:33:53.541Z,12.23
2023-02-14T07:36:20.415Z,13.20
2023-02-14T07:38:47.056Z,13.37
2023-02-14T07:41:13.742Z,12.80
2023-02-14T07:43:40.645Z,12.40
2023-02-14T07:46:07.569Z,11.07
2023-02-14T07:48:34.802Z,11.37
2023-02-14T07:51:02.219Z,11.00
2023-02-14T07:53:29.234Z,11.67
2023-02-14T07:55:55.945Z,9.57
2023-02-14T07:58:22.968Z,12.33
2023-02-14T08:00:51.075Z,11.57
2023-02-14T08:03:17.932Z,14.40
2023-02-14T08:05:45.123Z,10.90
2023-02-14T08:08:12.026Z,8.90
2023-02-14T08:10:41.704Z,9.50
2023-02-14T08:13:08.401Z,8.30
2023-02-14T08:16:02.823Z,8.43
2023-02-14T08:18:29.788Z,8.10
2023-02-14T08:20:56.521Z,7.83
2023-02-14T08:23:23.533Z,6.70
2023-02-14T08:26:25.019Z,5.60
2023-02-14T08:28:51.695Z,7.30
2023-02-14T08:31:35.123Z,7.27
2023-02-14T08:34:15.795Z,7.20
2023-02-14T08:36:42.979Z,9.10
2023-02-14T08:39:10.441Z,8.43
2023-02-14T08:41:37.132Z,8.30
2023-02-14T08:44:04.156Z,8.35
2023-02-14T08:46:31.000Z,8.90
2023-02-14T08:48:57.970Z,8.60
2023-02-14T08:51:25.845Z,8.13
2023-02-14T08:53:53.246Z,7.82
2023-02-14T08:56:22.544Z,8.43
2023-02-14T08:58:53.072Z,7.55
2023-02-14T09:01:20.148Z,8.88
2023-02-14T09:03:46.969Z,8.52
2023-02-14T09:06:17.689Z,7.18
2023-02-14T09:08:45.628Z,7.90
2023-02-14T09:11:18.854Z,8.07
2023-02-14T09:13:46.780Z,5.88
2023-02-14T09:16:17.380Z,5.90
2023-02-14T09:18:45.253Z,6.60
2023-02-14T09:21:16.394Z,6.70
2023-02-14T09:23:43.196Z,13.00
2023-02-14T09:26:13.265Z,12.77
2023-02-14T09:28:40.707Z,6.35
2023-02-14T09:31:13.295Z,6.45
2023-02-14T09:33:59.098Z,5.60
2023-02-14T09:36:44.862Z,5.72
2023-02-14T09:39:11.528Z,4.50
2023-02-14T09:41:48.420Z,3.10
2023-02-14T09:44:31.321Z,3.03
2023-02-14T09:47:06.513Z,2.80
2023-02-14T09:49:37.624Z,3.75
2023-02-14T09:52:07.382Z,3.80
2023-02-14T09:54:35.845Z,3.40
2023-02-14T09:57:09.631Z,3.10
2023-02-14T09:59:52.433Z,3.05
2023-02-14T10:02:42.099Z,3.15
2023-02-14T10:05:14.498Z,2.88
2023-02-14T10:08:03.345Z,3.40
2023-02-14T10:10:50.819Z,3.15
2023-02-14T10:13:24.476Z,3.60
2023-02-14T10:16:15.885Z,3.47
2023-02-14T10:19:01.830Z,3.80
2023-02-14T10:21:52.350Z,3.42
2023-02-14T10:24:39.484Z,3.17
2023-02-14T10:27:49.785Z,3.38
2023-02-14T10:30:22.203Z,3.60
2023-02-14T10:33:03.039Z,3.60
2023-02-14T10:35:44.391Z,3.28
2023-02-14T10:38:44.039Z,3.20
2023-02-14T10:41:28.587Z,3.53
2023-02-14T10:44:32.190Z,5.32
2023-02-14T10:47:26.651Z,3.53
2023-02-14T10:50:16.595Z,3.97
2023-02-14T10:53:17.274Z,3.78
2023-02-14T10:55:49.033Z,3.83
2023-02-14T10:58:20.334Z,3.75
2023-02-14T11:01:03.516Z,3.75
2023-02-14T11:03:30.815Z,3.75
2023-02-14T11:05:57.504Z,3.38
2023-02-14T11:08:33.548Z,3.00
2023-02-14T11:11:29.236Z,3.85
2023-02-14T11:13:56.249Z,3.17
2023-02-14T11:16:33.027Z,2.97
2023-02-14T11:19:55.059Z,3.17
2023-02-14T11:22:30.075Z,2.88
2023-02-14T11:25:19.576Z,3.20
2023-02-14T11:27:50.316Z,3.20
2023-02-14T11:30:23.534Z,2.65
2023-02-14T11:32:55.278Z,2.60
2023-02-14T11:35:27.434Z,3.33
2023-02-14T11:37:56.560Z,3.28
2023-02-14T11:40:33.673Z,3.78
2023-02-14T11:43:15.279Z,2.63
2023-02-14T11:45:44.394Z,2.75
2023-02-14T11:48:39.553Z,2.63
2023-02-14T11:51:10.167Z,2.60
2023-02-14T11:53:52.258Z,2.45
2023-02-14T11:56:20.982Z,2.65
2023-02-14T11:58:58.312Z,2.78
2023-02-14T12:01:29.251Z,2.55
2023-02-14T12:04:07.571Z,2.22
2023-02-14T12:06:36.441Z,2.30
2023-02-14T12:09:22.378Z,2.35
2023-02-14T12:11:59.057Z,2.40
2023-02-14T12:14:32.376Z,2.90
2023-02-14T12:17:23.720Z,3.28
2023-02-14T12:20:26.054Z,4.00
2023-02-14T12:23:01.348Z,3.08
2023-02-14T12:25:40.548Z,2.55
2023-02-14T12:28:15.660Z,2.70
2023-02-14T12:30:42.779Z,3.08
2023-02-14T12:33:19.835Z,2.78
2023-02-14T12:36:08.356Z,2.78
2023-02-14T12:39:09.161Z,2.08
2023-02-14T12:42:07.623Z,2.55
2023-02-14T12:44:40.312Z,2.25
2023-02-14T12:47:39.318Z,2.80
2023-02-14T12:50:23.666Z,2.30
2023-02-14T12:53:21.324Z,2.38
2023-02-14T12:56:22.257Z,2.45
2023-02-14T12:59:12.859Z,2.42
2023-02-14T13:02:28.013Z,2.58
2023-02-14T13:04:57.113Z,2.58
2023-02-14T13:07:29.772Z,2.70
2023-02-14T13:10:05.322Z,2.88
2023-02-14T13:12:39.888Z,2.78
2023-02-14T13:15:22.106Z,2.80
2023-02-14T13:17:59.813Z,2.70
2023-02-14T13:20:48.774Z,2.60
2023-02-14T13:23:26.717Z,3.00
2023-02-14T13:26:06.247Z,3.37
2023-02-14T13:28:35.793Z,6.93
2023-02-14T13:31:03.408Z,3.23
2023-02-14T13:33:36.794Z,3.30
2023-02-14T13:36:08.103Z,3.50
2023-02-14T13:38:50.090Z,3.30
2023-02-14T13:41:18.365Z,3.17
2023-02-14T13:43:46.377Z,3.40
2023-02-14T13:46:22.513Z,3.73
2023-02-14T13:49:27.066Z,3.50
2023-02-14T13:52:05.569Z,3.50
2023-02-14T13:54:43.496Z,3.27
2023-02-14T13:57:42.661Z,3.40
2023-02-14T14:00:21.297Z,3.40
2023-02-14T14:02:59.153Z,4.00
2023-02-14T14:05:40.427Z,3.47
2023-02-14T14:08:23.497Z,3.63
2023-02-14T14:10:56.116Z,3.43
2023-02-14T14:13:41.093Z,3.50
2023-02-14T14:16:29.062Z,3.83
2023-02-14T14:19:04.626Z,3.50
2023-02-14T14:21:34.602Z,3.40
2023-02-14T14:24:23.459Z,3.27
2023-02-14T14:26:59.818Z,2.90
2023-02-14T14:29:38.509Z,4.10
2023-02-14T14:32:26.429Z,3.80
2023-02-14T14:35:21.488Z,3.13
2023-02-14T14:37:55.340Z,3.63
2023-02-14T14:40:31.640Z,3.60
2023-02-14T14:43:14.256Z,4.07
2023-02-14T14:45:41.990Z,4.00
2023-02-14T14:48:12.709Z,3.70
2023-02-14T14:50:47.076Z,3.93
2023-02-14T14:53:48.754Z,3.30
2023-02-14T14:56:32.680Z,4.23
2023-02-14T14:59:27.140Z,3.67
2023-02-14T15:01:54.467Z,4.00
2023-02-14T15:04:33.510Z,4.07
2023-02-14T15:07:18.520Z,4.53
2023-02-14T15:09:45.895Z,6.03
2023-02-14T15:12:40.885Z,4.00
2023-02-14T15:15:11.151Z,3.57
2023-02-14T15:17:39.158Z,3.57
2023-02-14T15:20:19.821Z,4.43
2023-02-14T15:22:49.530Z,3.73
2023-02-14T15:25:33.155Z,3.63
2023-02-14T15:28:00.241Z,3.73
2023-02-14T15:30:37.934Z,3.97
2023-02-14T15:33:06.846Z,6.77
2023-02-14T15:35:36.940Z,6.57
2023-02-14T15:38:06.953Z,4.90
2023-02-14T15:40:34.975Z,10.80
2023-02-14T15:43:15.920Z,29.90
2023-02-14T15:45:45.187Z,22.53
2023-02-14T15:48:39.445Z,17.67
2023-02-14T15:51:06.769Z,7.77
2023-02-14T15:53:53.576Z,5.87
2023-02-14T15:56:35.305Z,5.20
2023-02-14T15:59:06.919Z,9.87
2023-02-14T16:01:35.621Z,9.90
2023-02-14T16:04:05.356Z,8.40
2023-02-14T16:06:44.582Z,6.63
2023-02-14T16:09:26.971Z,9.20
2023-02-14T16:11:54.084Z,10.07
2023-02-14T16:14:40.944Z,15.67
2023-02-14T16:17:34.345Z,10.97
2023-02-14T16:20:39.801Z,11.30
2023-02-14T16:23:28.192Z,8.63
2023-02-14T16:25:58.533Z,7.47
2023-02-14T16:28:29.555Z,6.10
2023-02-14T16:30:58.428Z,5.57
2023-02-14T16:33:35.970Z,7.47
2023-02-14T16:36:23.271Z,7.77
2023-02-14T16:38:50.749Z,6.03
2023-02-14T16:41:20.663Z,7.27
2023-02-14T16:43:48.505Z,6.17
2023-02-14T16:46:19.005Z,5.50
2023-02-14T16:48:46.859Z,6.30
2023-02-14T16:51:14.541Z,6.13
2023-02-14T16:53:43.144Z,8.07
2023-02-14T16:56:21.366Z,7.03
2023-02-14T16:58:48.526Z,7.07
2023-02-14T17:01:15.462Z,5.87
2023-02-14T17:03:44.850Z,8.20
2023-02-14T17:06:15.768Z,9.00
2023-02-14T17:08:43.405Z,7.87
2023-02-14T17:11:10.713Z,8.17
2023-02-14T17:13:41.110Z,10.47
2023-02-14T17:16:11.243Z,10.40
2023-02-14T17:18:38.929Z,11.40
2023-02-14T17:21:05.863Z,10.73
2023-02-14T17:23:32.579Z,9.07
2023-02-14T17:25:59.428Z,7.83
2023-02-14T17:28:26.592Z,8.13
2023-02-14T17:30:54.437Z,8.57
2023-02-14T17:33:22.144Z,70.90
2023-02-14T17:35:49.265Z,20.23
2023-02-14T17:38:16.275Z,9.17
2023-02-14T17:40:42.908Z,8.87
2023-02-14T17:43:09.683Z,15.93
2023-02-14T17:45:36.431Z,16.93
2023-02-14T17:48:03.118Z,20.63
2023-02-14T17:50:29.784Z,26.80
2023-02-14T17:52:56.925Z,35.17
2023-02-14T17:55:24.068Z,32.43
2023-02-14T17:57:52.559Z,31.13
2023-02-14T18:00:24.100Z,20.57
2023-02-14T18:02:50.808Z,24.43
2023-02-14T18:05:17.588Z,29.87
2023-02-14T18:07:44.396Z,37.80
2023-02-14T18:10:12.145Z,28.13
2023-02-14T18:12:39.032Z,23.80
2023-02-14T18:15:05.986Z,29.60
2023-02-14T18:17:32.902Z,19.90
2023-02-14T18:19:59.609Z,20.20
2023-02-14T18:22:28.256Z,24.20
2023-02-14T18:24:58.861Z,21.37
2023-02-14T18:27:26.172Z,14.67
2023-02-14T18:29:52.930Z,15.47
2023-02-14T18:32:23.788Z,17.13
2023-02-14T18:34:51.436Z,16.10
2023-02-14T18:37:18.371Z,13.03
2023-02-14T18:39:45.366Z,15.93
2023-02-14T18:42:11.979Z,15.17
2023-02-14T18:44:42.004Z,19.33
2023-02-14T18:47:08.924Z,22.97
2023-02-14T18:49:35.830Z,13.33
2023-02-14T18:52:04.817Z,8.40
2023-02-14T18:54:31.696Z,10.80
2023-02-14T18:56:58.425Z,11.30
2023-02-14T18:59:25.063Z,13.33
2023-02-14T19:01:52.108Z,15.03
2023-02-14T19:04:18.836Z,14.87
2023-02-14T19:06:45.519Z,15.63
2023-02-14T19:09:14.133Z,13.63
2023-02-14T19:11:41.441Z,8.20
2023-02-14T19:14:13.454Z,6.73
2023-02-14T19:16:50.367Z,7.97
2023-02-14T19:19:18.202Z,8.83
2023-02-14T19:21:45.570Z,10.97
2023-02-14T19:24:12.561Z,10.77
2023-02-14T19:26:42.622Z,12.40
2023-02-14T19:29:15.024Z,10.47
2023-02-14T19:31:44.651Z,11.93
2023-02-14T19:34:19.552Z,13.40
2023-02-14T19:36:46.871Z,11.97
2023-02-14T19:39:14.089Z,11.33
2023-02-14T19:41:40.994Z,13.07
2023-02-14T19:44:09.682Z,11.33
2023-02-14T19:46:38.164Z,12.40
2023-02-14T19:49:05.072Z,14.40
2023-02-14T19:51:34.356Z,14.33
2023-02-14T19:54:02.884Z,14.03
2023-02-14T19:56:32.135Z,14.23
2023-02-14T19:58:59.218Z,15.37
2023-02-14T20:01:25.954Z,15.67
2023-02-14T20:03:53.775Z,17.33
2023-02-14T20:06:21.925Z,16.93
2023-02-14T20:08:48.832Z,17.17
2023-02-14T20:11:30.961Z,17.67
2023-02-14T20:13:58.992Z,15.60
2023-02-14T20:16:27.320Z,16.73
2023-02-14T20:18:54.560Z,12.67
2023-02-14T20:21:25.361Z,11.13
2023-02-14T20:23:52.543Z,15.90
2023-02-14T20:26:19.331Z,14.80
2023-02-14T20:28:48.626Z,15.63
2023-02-14T20:31:19.430Z,19.03
2023-02-14T20:33:47.670Z,17.60
2023-02-14T20:36:14.570Z,15.27
2023-02-14T20:38:41.208Z,16.00
2023-02-14T20:41:10.728Z,21.83
2023-02-14T20:43:38.805Z,20.73
2023-02-14T20:46:07.154Z,17.93
2023-02-14T20:48:34.772Z,20.47
2023-02-14T20:51:12.201Z,17.93
2023-02-14T20:53:39.927Z,23.53
2023-02-14T20:56:07.808Z,22.33
2023-02-14T20:58:35.653Z,31.97
2023-02-14T21:01:17.309Z,31.33
2023-02-14T21:03:47.052Z,28.10
2023-02-14T21:06:15.016Z,34.13
2023-02-14T21:08:43.061Z,25.93
2023-02-14T21:11:12.606Z,22.70
2023-02-14T21:13:39.494Z,22.33
2023-02-14T21:16:09.408Z,21.63
2023-02-14T21:18:38.599Z,21.77
2023-02-14T21:21:18.424Z,18.80
2023-02-14T21:23:45.064Z,17.87
2023-02-14T21:26:11.766Z,17.67
2023-02-14T21:28:38.600Z,21.47
2023-02-14T21:31:15.707Z,20.13
2023-02-14T21:33:42.646Z,19.90
2023-02-14T21:36:15.389Z,17.17
2023-02-14T21:38:42.213Z,21.87
2023-02-14T21:41:11.783Z,17.57
2023-02-14T21:43:41.171Z,18.67
2023-02-14T21:46:13.698Z,19.10
2023-02-14T21:48:59.428Z,17.60
2023-02-14T21:51:27.763Z,19.90
2023-02-14T21:53:55.235Z,19.77
2023-02-14T21:56:23.138Z,14.87
2023-02-14T21:58:52.534Z,16.70
2023-02-14T22:01:22.584Z,15.93
2023-02-14T22:03:49.690Z,17.53
2023-02-14T22:06:16.770Z,17.87
2023-02-14T22:08:43.951Z,16.60
2023-02-14T22:11:13.694Z,17.60
2023-02-14T22:13:40.848Z,17.00
2023-02-14T22:16:13.096Z,13.07
2023-02-14T22:18:40.285Z,18.40
2023-02-14T22:21:14.120Z,19.83
2023-02-14T22:23:41.116Z,19.33
2023-02-14T22:26:23.832Z,20.73
2023-02-14T22:28:53.850Z,20.30
2023-02-14T22:31:20.629Z,20.57
2023-02-14T22:33:48.848Z,16.33
2023-02-14T22:36:16.245Z,17.90
2023-02-14T22:38:43.429Z,17.40
2023-02-14T22:41:12.058Z,17.23
2023-02-14T22:43:39.635Z,17.23
2023-02-14T22:46:09.637Z,14.37
2023-02-14T22:48:37.732Z,15.87
2023-02-14T22:51:11.342Z,15.43
2023-02-14T22:53:39.309Z,14.13
2023-02-14T22:56:24.354Z,16.10
2023-02-14T22:58:56.080Z,13.57
2023-02-14T23:01:23.685Z,15.90
2023-02-14T23:03:54.168Z,14.80
2023-02-14T23:06:21.129Z,17.40
2023-02-14T23:08:48.327Z,18.47
2023-02-14T23:11:21.350Z,18.33
2023-02-14T23:14:06.621Z,14.67
2023-02-14T23:16:52.126Z,17.23
2023-02-14T23:19:40.475Z,14.63
2023-02-14T23:22:16.353Z,15.00
2023-02-14T23:24:43.091Z,13.60
2023-02-14T23:27:10.066Z,16.17
2023-02-14T23:29:37.494Z,16.17
2023-02-14T23:32:05.706Z,15.80
2023-02-14T23:34:34.576Z,13.63
2023-02-14T23:37:01.810Z,16.90
2023-02-14T23:39:28.625Z,14.53
2023-02-14T23:41:55.420Z,15.80
2023-02-14T23:44:24.622Z,14.00
2023-02-14T23:46:57.127Z,14.23
2023-02-14T23:49:25.159Z,16.10
2023-02-14T23:51:53.332Z,16.13
2023-02-14T23:54:21.314Z,16.03
2023-02-14T23:56:48.434Z,20.47
2023-02-14T23:59:16.183Z,16.33
